Date,TemperatureHighF,TemperatureAvgF,TemperatureLowF,DewpointHighF,DewpointAvgF,DewpointLowF,HumidityHigh,HumidityAvg,HumidityLow,PressureMaxIn,PressureMinIn,WindSpeedMaxMPH,WindSpeedAvgMPH,GustSpeedMaxMPH,PrecipitationSumIn
2014-1-1,46.6,46.6,46.6,46.3,46.3,46.3,99,99,99,30.10,29.84,12,5,12,0.00
2014-1-2,46.6,46.6,46.6,46.3,46.3,46.3,99,99,99,29.84,29.47,21,6,21,0.00
2014-1-3,46.6,46.6,46.6,46.3,46.3,46.3,99,99,99,30.19,29.70,23,10,23,0.00
2014-1-4,46.6,46.6,46.6,46.3,46.3,46.3,99,99,99,30.14,29.89,18,4,18,0.01
2014-1-5,46.6,46.6,46.6,46.3,46.3,46.3,99,99,99,29.92,29.22,14,4,14,0.03
2014-1-6,46.6,46.6,46.6,46.3,46.3,46.3,99,99,99,29.92,29.18,47,20,47,0.12
2014-1-7,46.6,46.6,46.6,46.3,46.3,29.9,99,99,99,30.17,29.91,32,16,32,0.00
2014-1-8,46.6,46.6,46.6,46.3,46.3,46.3,99,99,99,30.26,30.17,11,4,11,0.00
2014-1-9,46.6,46.6,46.6,46.3,46.3,46.3,99,99,99,30.36,30.15,10,3,10,0.00
2014-1-10,46.6,46.6,46.6,46.3,46.3,46.3,99,99,99,30.17,29.70,10,4,10,0.00
2014-1-11,46.6,46.6,46.6,46.3,46.3,46.3,99,99,99,29.70,29.21,45,12,45,0.47
2014-1-12,46.6,46.6,46.6,46.3,46.3,46.3,99,99,99,29.85,29.48,30,12,30,0.00
2014-1-13,46.6,46.6,46.6,46.3,46.3,46.3,99,99,99,29.81,29.54,18,8,18,0.17
2014-1-14,46.6,46.6,46.6,46.3,46.3,46.3,99,99,99,29.75,29.51,18,6,18,0.09
2014-1-15,46.6,46.6,46.6,46.3,46.3,46.3,99,99,99,29.81,29.59,20,10,20,0.00
2014-1-16,46.6,46.6,46.6,46.3,46.3,46.3,99,99,99,29.80,29.61,15,5,15,0.00
2014-1-17,46.6,46.6,46.6,46.3,46.3,46.3,99,99,99,29.72,29.58,26,6,26,0.00
2014-1-18,46.6,46.6,46.6,46.3,46.3,46.3,99,99,99,29.81,29.66,24,9,24,0.00
2014-1-19,46.6,46.6,46.6,46.3,46.3,46.3,99,99,99,29.66,29.50,23,10,23,0.00
2014-1-20,46.6,46.6,46.6,46.3,46.3,46.3,99,99,99,29.71,29.44,26,11,26,0.00
2014-1-21,46.6,46.6,46.6,46.3,46.3,46.3,99,99,99,29.82,29.63,20,9,20,0.00
2014-1-22,46.6,46.6,46.6,46.3,46.3,46.3,99,99,99,29.87,29.78,14,6,14,0.00
2014-1-23,46.6,46.6,46.6,46.3,46.3,46.3,99,99,99,30.21,29.79,29,12,29,0.00
2014-1-24,46.6,46.6,46.6,46.3,46.3,46.3,99,99,99,30.25,29.64,25,11,26,0.00
2014-1-25,46.6,46.6,46.6,46.3,46.3,46.3,99,99,99,29.63,29.17,32,14,32,0.00
2014-1-26,46.6,46.6,46.6,46.3,46.3,46.3,99,99,99,29.63,29.39,28,9,28,0.00
2014-1-27,46.6,46.6,46.6,46.3,46.3,46.3,99,99,99,30.04,29.31,45,19,45,0.02
2014-1-28,46.6,46.6,46.6,46.3,46.3,46.3,99,99,99,30.20,30.02,23,6,23,0.00
2014-1-29,46.6,46.6,46.6,46.3,46.3,46.3,99,99,99,30.11,29.99,25,9,25,0.00
2014-1-30,46.6,46.6,46.6,46.3,46.3,46.3,99,99,99,30.11,29.75,13,4,13,0.00
2014-1-31,47.0,46.6,46.6,46.7,46.3,46.3,99,99,99,30.03,29.77,16,9,16,0.00